createdAt,value
2019-02-17T00:02:22.717Z,7.49
2019-02-17T00:04:52.841Z,7.47
2019-02-17T00:07:23.014Z,7.45
2019-02-17T00:09:55.522Z,7.43
2019-02-17T00:12:25.699Z,7.39
2019-02-17T00:14:55.758Z,7.36
2019-02-17T00:17:25.971Z,7.34
2019-02-17T00:19:56.217Z,7.31
2019-02-17T00:22:26.391Z,7.27
2019-02-17T00:24:56.460Z,7.25
2019-02-17T00:27:26.709Z,7.20
2019-02-17T00:29:56.769Z,7.16
2019-02-17T00:32:27.003Z,7.15
2019-02-17T00:34:57.122Z,7.14
2019-02-17T00:37:27.431Z,7.12
2019-02-17T00:39:57.660Z,7.11
2019-02-17T00:42:27.756Z,7.10
2019-02-17T00:44:57.869Z,7.09
2019-02-17T00:47:28.116Z,7.06
2019-02-17T00:49:58.257Z,7.02
2019-02-17T00:52:28.465Z,6.98
2019-02-17T00:54:58.599Z,6.93
2019-02-17T00:57:28.768Z,6.89
2019-02-17T00:59:58.935Z,6.83
2019-02-17T01:02:39.420Z,6.81
2019-02-17T01:05:17.338Z,6.78
2019-02-17T01:07:48.902Z,6.75
2019-02-17T01:10:19.227Z,6.72
2019-02-17T01:12:49.410Z,6.71
2019-02-17T01:15:19.541Z,6.69
2019-02-17T01:17:49.766Z,6.67
2019-02-17T01:20:20.062Z,6.66
2019-02-17T01:22:50.246Z,6.63
2019-02-17T01:25:20.378Z,6.62
2019-02-17T01:27:50.524Z,6.61
2019-02-17T01:30:20.586Z,6.59
2019-02-17T01:32:50.811Z,6.56
2019-02-17T01:35:21.049Z,6.53
2019-02-17T01:37:51.251Z,6.50
2019-02-17T01:40:21.481Z,6.49
2019-02-17T01:42:51.707Z,6.46
2019-02-17T01:45:22.103Z,6.45
2019-02-17T01:47:52.345Z,6.42
2019-02-17T01:50:22.490Z,6.39
2019-02-17T01:52:52.671Z,6.37
2019-02-17T01:55:22.865Z,6.33
2019-02-17T01:57:53.187Z,6.29
2019-02-17T02:00:23.482Z,6.25
2019-02-17T02:02:53.685Z,6.22
2019-02-17T02:05:23.842Z,6.17
2019-02-17T02:07:53.997Z,6.16
2019-02-17T02:10:24.221Z,6.12
2019-02-17T02:12:54.451Z,6.12
2019-02-17T02:15:24.540Z,6.09
2019-02-17T02:17:54.700Z,6.06
2019-02-17T02:20:25.318Z,6.04
2019-02-17T02:22:55.359Z,6.00
2019-02-17T02:25:25.552Z,5.98
2019-02-17T02:27:55.708Z,5.95
2019-02-17T02:30:25.935Z,5.93
2019-02-17T02:32:56.163Z,5.90
2019-02-17T02:35:26.822Z,5.85
2019-02-17T02:37:56.959Z,5.82
2019-02-17T02:40:27.044Z,5.80
2019-02-17T02:42:57.265Z,5.77
2019-02-17T02:45:27.403Z,5.75
2019-02-17T02:47:57.633Z,5.72
2019-02-17T02:50:27.837Z,5.70
2019-02-17T02:52:57.991Z,5.68
2019-02-17T02:55:28.068Z,5.62
2019-02-17T02:57:58.152Z,5.59
2019-02-17T03:00:28.326Z,5.56
2019-02-17T03:02:58.748Z,5.54
2019-02-17T03:05:29.225Z,5.51
2019-02-17T03:07:59.288Z,5.48
2019-02-17T03:10:29.450Z,5.46
2019-02-17T03:12:59.738Z,5.42
2019-02-17T03:15:29.881Z,5.39
2019-02-17T03:17:59.997Z,5.34
2019-02-17T03:20:30.231Z,5.30
2019-02-17T03:23:00.375Z,5.26
2019-02-17T03:25:30.633Z,5.23
2019-02-17T03:28:00.841Z,5.21
2019-02-17T03:30:31.093Z,5.17
2019-02-17T03:33:01.335Z,5.15
2019-02-17T03:35:31.663Z,5.12
2019-02-17T03:38:01.800Z,5.08
2019-02-17T03:40:32.017Z,5.06
2019-02-17T03:43:02.185Z,5.04
2019-02-17T03:45:32.420Z,5.00
2019-02-17T03:48:02.679Z,4.97
2019-02-17T03:50:32.997Z,4.96
2019-02-17T03:53:03.119Z,4.91
2019-02-17T03:55:33.323Z,4.89
2019-02-17T03:58:03.629Z,4.89
2019-02-17T04:00:35.709Z,4.86
2019-02-17T04:03:06.961Z,4.84
2019-02-17T04:05:37.202Z,4.80
2019-02-17T04:08:07.529Z,4.77
2019-02-17T04:10:37.684Z,4.73
2019-02-17T04:13:07.756Z,4.72
2019-02-17T04:15:37.915Z,4.71
2019-02-17T04:18:08.063Z,4.68
2019-02-17T04:20:38.345Z,4.68
2019-02-17T04:23:08.488Z,4.65
2019-02-17T04:25:38.743Z,4.64
2019-02-17T04:28:08.970Z,4.63
2019-02-17T04:30:39.137Z,4.57
2019-02-17T04:33:09.383Z,4.54
2019-02-17T04:35:39.538Z,4.52
2019-02-17T04:38:09.776Z,4.53
2019-02-17T04:40:39.943Z,4.51
2019-02-17T04:43:10.174Z,4.51
2019-02-17T04:45:40.388Z,4.48
2019-02-17T04:48:10.539Z,4.48
2019-02-17T04:50:40.805Z,4.48
2019-02-17T04:53:11.022Z,4.46
2019-02-17T04:55:41.217Z,4.44
2019-02-17T04:58:11.563Z,4.41
2019-02-17T05:00:41.642Z,4.38
2019-02-17T05:03:11.826Z,4.36
2019-02-17T05:05:41.976Z,4.35
2019-02-17T05:08:12.074Z,4.31
2019-02-17T05:10:42.346Z,4.27
2019-02-17T05:13:12.722Z,4.24
2019-02-17T05:15:43.040Z,4.22
2019-02-17T05:18:13.410Z,4.21
2019-02-17T05:20:51.241Z,4.22
2019-02-17T05:23:21.454Z,4.22
2019-02-17T05:25:55.150Z,4.21
2019-02-17T05:28:25.671Z,4.17
2019-02-17T05:30:58.298Z,4.17
2019-02-17T05:33:28.317Z,4.17
2019-02-17T05:35:58.964Z,4.17
2019-02-17T05:38:31.062Z,4.17
2019-02-17T05:41:01.763Z,4.18
2019-02-17T05:43:33.763Z,4.16
2019-02-17T05:46:04.259Z,4.14
2019-02-17T05:48:34.728Z,4.13
2019-02-17T05:51:05.143Z,4.11
2019-02-17T05:53:35.666Z,4.08
2019-02-17T05:56:07.379Z,4.07
2019-02-17T05:58:38.030Z,4.01
2019-02-17T06:01:08.590Z,3.96
2019-02-17T06:03:38.859Z,4.00
2019-02-17T06:06:09.279Z,3.94
2019-02-17T06:08:39.753Z,3.96
2019-02-17T06:11:10.047Z,3.94
2019-02-17T06:13:40.590Z,3.92
2019-02-17T06:16:11.223Z,3.89
2019-02-17T06:18:41.755Z,3.86
2019-02-17T06:21:12.195Z,3.84
2019-02-17T06:23:42.621Z,3.83
2019-02-17T06:26:13.176Z,3.78
2019-02-17T06:28:44.689Z,3.78
2019-02-17T06:31:15.249Z,3.79
2019-02-17T06:33:45.680Z,3.77
2019-02-17T06:36:15.988Z,3.75
2019-02-17T06:38:46.525Z,3.73
2019-02-17T06:41:17.042Z,3.71
2019-02-17T06:43:47.541Z,3.69
2019-02-17T06:46:21.900Z,3.69
2019-02-17T06:48:52.399Z,3.65
2019-02-17T06:51:22.815Z,3.65
2019-02-17T06:53:53.340Z,3.61
2019-02-17T06:56:54.708Z,3.63
2019-02-17T06:59:25.357Z,3.64
2019-02-17T07:01:55.838Z,3.64
2019-02-17T07:04:48.378Z,3.63
2019-02-17T07:07:19.046Z,3.65
2019-02-17T07:09:49.491Z,3.65
2019-02-17T07:12:20.029Z,3.65
2019-02-17T07:14:50.681Z,3.65
2019-02-17T07:17:21.136Z,3.65
2019-02-17T07:19:51.575Z,3.63
2019-02-17T07:22:22.662Z,3.65
2019-02-17T07:24:53.040Z,3.62
2019-02-17T07:27:23.671Z,3.68
2019-02-17T07:29:55.442Z,3.70
2019-02-17T07:32:25.900Z,3.71
2019-02-17T07:34:59.845Z,3.75
2019-02-17T07:37:33.557Z,3.80
2019-02-17T07:40:02.981Z,3.83
2019-02-17T07:42:36.130Z,3.90
2019-02-17T07:45:07.110Z,3.97
2019-02-17T07:47:40.648Z,4.04
2019-02-17T07:50:14.328Z,4.12
2019-02-17T07:52:46.458Z,4.18
2019-02-17T07:55:17.125Z,4.23
2019-02-17T07:57:47.783Z,4.35
2019-02-17T08:00:18.378Z,4.46
2019-02-17T08:02:49.665Z,4.53
2019-02-17T08:05:22.008Z,4.58
2019-02-17T08:07:52.764Z,4.66
2019-02-17T08:10:23.538Z,4.72
2019-02-17T08:12:54.101Z,4.79
2019-02-17T08:15:24.504Z,4.83
2019-02-17T08:17:54.635Z,4.91
2019-02-17T08:20:24.874Z,4.97
2019-02-17T08:22:55.098Z,5.03
2019-02-17T08:25:25.343Z,5.06
2019-02-17T08:27:55.539Z,5.11
2019-02-17T08:30:25.794Z,5.16
2019-02-17T08:32:56.048Z,5.20
2019-02-17T08:35:29.224Z,5.22
2019-02-17T08:37:59.428Z,5.25
2019-02-17T08:40:29.729Z,5.29
2019-02-17T08:43:00.281Z,5.33
2019-02-17T08:45:30.630Z,5.40
2019-02-17T08:48:01.042Z,5.47
2019-02-17T08:50:31.233Z,5.54
2019-02-17T08:53:01.685Z,5.59
2019-02-17T08:55:31.877Z,5.64
2019-02-17T08:58:02.061Z,5.70
2019-02-17T09:00:32.254Z,5.76
2019-02-17T09:03:02.671Z,5.82
2019-02-17T09:05:32.870Z,5.90
2019-02-17T09:08:05.418Z,6.00
2019-02-17T09:10:35.697Z,6.12
2019-02-17T09:13:06.704Z,6.23
2019-02-17T09:15:36.931Z,6.35
2019-02-17T09:18:07.304Z,6.46
2019-02-17T09:20:37.439Z,6.55
2019-02-17T09:23:07.550Z,6.62
2019-02-17T09:25:37.792Z,6.67
2019-02-17T09:28:08.085Z,6.74
2019-02-17T09:30:38.327Z,6.81
2019-02-17T09:33:10.422Z,6.86
2019-02-17T09:35:40.713Z,6.94
2019-02-17T09:38:10.969Z,7.00
2019-02-17T09:40:41.300Z,7.07
2019-02-17T09:43:11.548Z,7.12
2019-02-17T09:45:47.053Z,7.18
2019-02-17T09:48:17.163Z,7.26
2019-02-17T09:50:47.425Z,7.33
2019-02-17T09:53:17.728Z,7.39
2019-02-17T09:55:47.934Z,7.45
2019-02-17T09:58:18.407Z,7.51
2019-02-17T10:00:48.552Z,7.60
2019-02-17T10:03:18.714Z,7.67
2019-02-17T10:05:48.893Z,7.76
2019-02-17T10:08:19.047Z,7.82
2019-02-17T10:10:49.435Z,7.88
2019-02-17T10:13:19.502Z,7.94
2019-02-17T10:15:52.466Z,8.00
2019-02-17T10:18:22.603Z,8.09
2019-02-17T10:20:52.830Z,8.15
2019-02-17T10:23:22.979Z,8.23
2019-02-17T10:25:56.636Z,8.31
2019-02-17T10:28:26.956Z,8.39
2019-02-17T10:30:57.178Z,8.45
2019-02-17T10:33:27.546Z,8.52
2019-02-17T10:35:57.642Z,8.59
2019-02-17T10:38:28.914Z,8.64
2019-02-17T10:40:58.991Z,8.72
2019-02-17T10:43:29.203Z,8.79
2019-02-17T10:45:59.365Z,8.86
2019-02-17T10:48:29.657Z,8.95
2019-02-17T10:51:00.092Z,9.05
2019-02-17T10:53:30.225Z,9.17
2019-02-17T10:56:00.623Z,9.26
2019-02-17T10:58:30.868Z,9.33
2019-02-17T11:01:00.986Z,9.41
2019-02-17T11:03:31.285Z,9.49
2019-02-17T11:06:04.467Z,9.58
2019-02-17T11:08:34.822Z,9.67
2019-02-17T11:11:07.630Z,9.76
2019-02-17T11:13:37.846Z,9.83
2019-02-17T11:16:08.123Z,9.90
2019-02-17T11:18:38.344Z,9.97
2019-02-17T11:21:08.526Z,10.05
2019-02-17T11:23:38.832Z,10.15
2019-02-17T11:26:11.137Z,10.26
2019-02-17T11:28:41.420Z,10.34
2019-02-17T11:31:40.572Z,10.42
2019-02-17T11:34:10.914Z,10.52
2019-02-17T11:36:41.371Z,10.66
2019-02-17T11:39:27.225Z,10.77
2019-02-17T11:41:57.317Z,10.89
2019-02-17T11:44:27.681Z,11.02
2019-02-17T11:47:00.362Z,11.15
2019-02-17T11:49:30.514Z,11.25
2019-02-17T11:52:08.878Z,11.35
2019-02-17T11:54:39.096Z,11.45
2019-02-17T11:57:15.473Z,11.54
2019-02-17T11:59:45.594Z,11.64
2019-02-17T12:02:24.719Z,11.73
2019-02-17T12:04:48.007Z,11.84
2019-02-17T12:07:18.238Z,11.98
2019-02-17T12:09:48.464Z,12.12
2019-02-17T12:12:18.628Z,12.25
2019-02-17T12:14:48.956Z,12.40
2019-02-17T12:17:19.157Z,12.55
2019-02-17T12:19:49.347Z,12.69
2019-02-17T12:22:36.489Z,12.82
2019-02-17T12:25:11.350Z,12.91
2019-02-17T12:27:55.102Z,13.02
2019-02-17T12:30:26.258Z,13.11
2019-02-17T12:32:58.313Z,13.21
2019-02-17T12:35:28.420Z,13.30
2019-02-17T12:37:58.570Z,13.40
2019-02-17T12:40:28.839Z,13.53
2019-02-17T12:43:09.507Z,13.63
2019-02-17T12:45:39.847Z,13.71
2019-02-17T12:48:10.188Z,13.82
2019-02-17T12:50:40.318Z,13.94
2019-02-17T12:53:10.646Z,14.05
2019-02-17T12:55:40.932Z,14.19
2019-02-17T12:58:11.119Z,14.28
2019-02-17T13:00:44.627Z,14.36
2019-02-17T13:03:15.028Z,14.48
2019-02-17T13:05:45.315Z,14.62
2019-02-17T13:08:15.592Z,14.74
2019-02-17T13:10:47.851Z,14.93
2019-02-17T13:13:18.131Z,15.32
2019-02-17T13:15:48.343Z,16.04
2019-02-17T13:18:18.778Z,16.81
2019-02-17T13:20:49.028Z,17.47
2019-02-17T13:23:19.208Z,17.99
2019-02-17T13:25:51.548Z,18.46
2019-02-17T13:28:23.538Z,18.77
2019-02-17T13:30:53.882Z,18.90
2019-02-17T13:33:24.165Z,19.08
2019-02-17T13:35:57.323Z,19.26
2019-02-17T13:38:27.744Z,19.34
2019-02-17T13:41:00.946Z,19.33
2019-02-17T13:43:34.331Z,19.24
2019-02-17T13:46:07.215Z,19.26
2019-02-17T13:48:38.848Z,19.46
2019-02-17T13:51:11.256Z,19.64
2019-02-17T13:53:44.390Z,19.63
2019-02-17T13:56:14.620Z,19.34
2019-02-17T13:58:45.353Z,18.99
2019-02-17T14:01:15.686Z,18.69
2019-02-17T14:03:48.951Z,18.40
2019-02-17T14:06:17.987Z,18.17
2019-02-17T14:08:49.813Z,17.94
2019-02-17T14:11:20.136Z,17.77
2019-02-17T14:13:50.547Z,17.63
2019-02-17T14:16:20.790Z,17.52
2019-02-17T14:18:51.071Z,17.39
2019-02-17T14:21:22.628Z,17.30
2019-02-17T14:23:55.804Z,17.19
2019-02-17T14:26:26.179Z,17.06
2019-02-17T14:28:56.449Z,16.95
2019-02-17T14:31:26.767Z,16.84
2019-02-17T14:33:58.805Z,16.75
2019-02-17T14:36:32.054Z,16.68
2019-02-17T14:39:04.952Z,16.62
2019-02-17T14:41:35.363Z,16.60
2019-02-17T14:44:09.239Z,16.55
2019-02-17T14:46:40.788Z,16.53
2019-02-17T14:49:11.196Z,16.52
2019-02-17T14:51:41.428Z,16.52
2019-02-17T14:54:11.653Z,16.52
2019-02-17T14:56:42.206Z,16.52
2019-02-17T14:59:12.647Z,16.52
2019-02-17T15:01:43.121Z,16.52
2019-02-17T15:04:13.651Z,16.49
2019-02-17T15:06:49.043Z,16.47
2019-02-17T15:09:19.573Z,16.49
2019-02-17T15:11:52.394Z,16.46
2019-02-17T15:14:30.043Z,16.44
2019-02-17T15:17:01.107Z,16.41
2019-02-17T15:19:37.930Z,16.37
2019-02-17T15:22:11.312Z,16.34
2019-02-17T15:24:42.721Z,16.27
2019-02-17T15:27:18.760Z,16.18
2019-02-17T15:29:51.198Z,16.11
2019-02-17T15:32:22.109Z,16.04
2019-02-17T15:34:52.964Z,15.96
2019-02-17T15:37:26.368Z,15.88
2019-02-17T15:39:57.888Z,15.74
2019-02-17T15:42:38.883Z,15.69
2019-02-17T15:45:56.844Z,15.60
2019-02-17T15:48:42.292Z,15.51
2019-02-17T15:51:12.853Z,15.39
2019-02-17T15:53:43.648Z,15.32
2019-02-17T15:56:26.716Z,15.23
2019-02-17T15:59:07.372Z,15.15
2019-02-17T16:14:53.003Z,14.91
2019-02-17T16:17:23.432Z,14.80
2019-02-17T16:19:53.896Z,14.68
2019-02-17T16:22:27.013Z,14.54
2019-02-17T16:25:02.929Z,14.35
2019-02-17T16:27:45.098Z,14.17
2019-02-17T16:30:24.052Z,13.98
2019-02-17T16:33:10.158Z,13.80
2019-02-17T16:35:40.505Z,13.63
2019-02-17T16:38:12.782Z,13.39
2019-02-17T16:40:46.611Z,13.25
2019-02-17T16:43:20.230Z,13.06
2019-02-17T16:45:50.912Z,12.89
2019-02-17T16:48:21.500Z,12.70
2019-02-17T16:50:51.947Z,12.54
2019-02-17T16:53:24.365Z,12.43
2019-02-17T16:55:55.711Z,12.27
2019-02-17T16:58:26.432Z,12.18
2019-02-17T17:00:57.059Z,12.10
2019-02-17T17:03:27.587Z,12.02
2019-02-17T17:05:58.428Z,11.94
2019-02-17T17:08:29.189Z,11.83
2019-02-17T17:11:00.417Z,11.72
2019-02-17T17:13:33.690Z,11.63
2019-02-17T17:16:04.364Z,11.55
2019-02-17T17:18:35.184Z,11.44
2019-02-17T17:21:05.754Z,11.38
2019-02-17T17:23:45.444Z,11.30
2019-02-17T17:26:16.089Z,11.21
2019-02-17T17:28:46.699Z,11.15
2019-02-17T17:31:17.301Z,11.10
2019-02-17T17:33:47.996Z,11.04
2019-02-17T17:36:18.647Z,10.98
2019-02-17T17:38:52.555Z,10.94
2019-02-17T17:41:26.462Z,10.88
2019-02-17T17:43:57.060Z,10.83
2019-02-17T17:46:27.854Z,10.80
2019-02-17T17:49:07.089Z,10.77
2019-02-17T17:51:52.780Z,10.73
2019-02-17T17:54:27.056Z,10.66
2019-02-17T17:56:59.668Z,10.59
2019-02-17T18:00:50.489Z,10.54
2019-02-17T18:03:23.093Z,10.48
2019-02-17T18:05:53.353Z,10.34
2019-02-17T18:08:23.654Z,10.28
2019-02-17T18:11:04.059Z,10.26
2019-02-17T18:13:34.168Z,10.19
2019-02-17T18:16:04.592Z,10.11
2019-02-17T18:18:34.716Z,10.06
2019-02-17T18:21:04.994Z,10.03
2019-02-17T18:23:35.147Z,9.96
2019-02-17T18:26:06.531Z,9.91
2019-02-17T18:28:36.726Z,9.81
2019-02-17T18:31:07.036Z,9.73
2019-02-17T18:33:40.074Z,9.65
2019-02-17T18:36:10.530Z,9.56
2019-02-17T18:38:43.394Z,9.48
2019-02-17T18:41:13.993Z,9.43
2019-02-17T18:43:44.211Z,9.37
2019-02-17T18:46:14.504Z,9.32
2019-02-17T18:48:44.771Z,9.26
2019-02-17T18:51:15.134Z,9.20
2019-02-17T18:53:45.299Z,8.61
2019-02-17T18:56:15.767Z,9.10
2019-02-17T18:58:45.997Z,9.05
2019-02-17T19:01:16.389Z,9.00
2019-02-17T19:03:47.254Z,8.96
2019-02-17T19:06:17.866Z,8.95
2019-02-17T19:08:48.733Z,8.95
2019-02-17T19:11:19.699Z,8.93
2019-02-17T19:13:50.502Z,8.95
2019-02-17T19:16:21.186Z,8.97
2019-02-17T19:18:51.825Z,8.94
2019-02-17T19:21:22.408Z,8.93
2019-02-17T19:23:52.877Z,8.90
2019-02-17T19:26:23.511Z,8.90
2019-02-17T19:28:53.975Z,8.86
2019-02-17T19:31:24.569Z,8.82
2019-02-17T19:33:57.577Z,8.73
2019-02-17T19:36:28.233Z,8.68
2019-02-17T19:38:58.736Z,8.65
2019-02-17T19:41:29.392Z,8.59
2019-02-17T19:43:59.884Z,8.52
2019-02-17T19:46:30.370Z,8.47
2019-02-17T19:49:00.834Z,8.40
2019-02-17T19:51:31.494Z,8.40
2019-02-17T19:54:02.078Z,8.33
2019-02-17T19:56:32.583Z,8.30
2019-02-17T19:59:03.206Z,8.25
2019-02-17T20:01:34.444Z,8.23
2019-02-17T20:04:33.119Z,8.21
2019-02-17T20:07:03.977Z,8.20
2019-02-17T20:09:34.451Z,8.16
2019-02-17T20:12:05.079Z,8.13
2019-02-17T20:14:35.619Z,8.08
2019-02-17T20:17:07.061Z,8.06
2019-02-17T20:19:37.615Z,8.02
2019-02-17T20:22:08.406Z,7.93
2019-02-17T20:24:39.104Z,7.91
2019-02-17T20:27:09.624Z,7.91
2019-02-17T20:29:40.075Z,7.90
2019-02-17T20:32:10.466Z,7.86
2019-02-17T20:34:40.841Z,7.82
2019-02-17T20:39:57.517Z,7.81
2019-02-17T20:42:28.502Z,7.69
2019-02-17T20:44:59.493Z,7.63
2019-02-17T20:47:30.141Z,7.57
2019-02-17T20:50:00.821Z,7.54
2019-02-17T20:52:32.277Z,7.48
2019-02-17T20:55:02.891Z,7.45
2019-02-17T20:57:33.410Z,7.42
2019-02-17T21:00:04.120Z,7.39
2019-02-17T21:02:34.639Z,7.36
2019-02-17T21:05:05.658Z,7.33
2019-02-17T21:07:36.419Z,7.29
2019-02-17T21:10:07.856Z,7.34
2019-02-17T21:12:38.471Z,7.31
2019-02-17T21:15:09.995Z,7.31
2019-02-17T21:17:40.611Z,7.28
2019-02-17T21:20:11.392Z,7.24
2019-02-17T21:22:41.813Z,7.24
2019-02-17T21:25:12.429Z,7.17
2019-02-17T21:27:42.952Z,7.17
2019-02-17T21:30:13.790Z,7.14
2019-02-17T21:32:44.234Z,7.12
2019-02-17T21:35:15.098Z,7.09
2019-02-17T21:37:45.700Z,7.07
2019-02-17T21:40:17.783Z,7.06
2019-02-17T21:42:48.275Z,7.05
2019-02-17T21:45:18.824Z,7.05
2019-02-17T21:47:49.523Z,7.05
2019-02-17T21:50:20.087Z,7.09
2019-02-17T21:52:50.894Z,7.10
2019-02-17T21:55:21.425Z,7.10
2019-02-17T21:57:51.969Z,7.14
2019-02-17T22:00:22.540Z,7.17
2019-02-17T22:02:53.027Z,7.19
2019-02-17T22:05:23.763Z,7.20
2019-02-17T22:07:54.211Z,7.20
2019-02-17T22:10:24.837Z,7.19
2019-02-17T22:12:55.529Z,7.18
2019-02-17T22:18:29.800Z,7.27
2019-02-17T22:21:00.442Z,7.18
2019-02-17T22:23:30.938Z,7.08
2019-02-17T22:26:01.481Z,7.09
2019-02-17T22:28:32.037Z,7.02
2019-02-17T22:31:02.534Z,7.02
2019-02-17T22:33:33.202Z,7.03
2019-02-17T22:36:03.638Z,7.05
2019-02-17T22:38:34.672Z,7.07
2019-02-17T22:41:06.231Z,7.08
2019-02-17T22:43:36.839Z,7.11
2019-02-17T22:46:07.690Z,7.14
2019-02-17T22:48:38.183Z,7.16
2019-02-17T22:51:08.823Z,7.17
2019-02-17T22:53:43.528Z,7.17
2019-02-17T22:56:12.089Z,7.18
2019-02-17T22:58:42.985Z,7.17
2019-02-17T23:01:20.224Z,7.13
2019-02-17T23:03:52.409Z,7.17
2019-02-17T23:06:23.170Z,7.17
2019-02-17T23:08:53.768Z,7.15
2019-02-17T23:11:24.333Z,7.16
2019-02-17T23:13:54.552Z,7.14
2019-02-17T23:16:24.904Z,7.14
2019-02-17T23:18:55.249Z,7.12
2019-02-17T23:21:25.592Z,7.14
2019-02-17T23:23:56.124Z,7.17
2019-02-17T23:26:26.413Z,7.19
2019-02-17T23:28:56.722Z,7.19
2019-02-17T23:31:27.022Z,7.21
2019-02-17T23:33:57.375Z,7.25
2019-02-17T23:36:27.467Z,7.31
2019-02-17T23:38:57.739Z,7.39
2019-02-17T23:41:27.903Z,7.45
2019-02-17T23:43:58.208Z,7.51
2019-02-17T23:46:28.470Z,7.56
2019-02-17T23:48:58.607Z,7.61
2019-02-17T23:51:28.687Z,7.65
2019-02-17T23:53:58.991Z,7.69
2019-02-17T23:56:29.293Z,7.69
2019-02-17T23:58:59.451Z,7.69
